Nearby METAR Reports

 

EGXV - Leconfield (aut), United Kingdom
Distance from station: NV 6mi, 9km
Ultima actualizare: Sat, 20-Jan-2018 1:50pm GMT
Acoperit cu nori
Acoperit cu nori
 Vânt dela V
Vântul: V 6 mph , 9 km/h
Temperatura: 4°C
Wind Chill: 2°C
Punct de rouă: 2°C
Umiditate: 87%
Barometru: 999 hPa
Clouds: Acoperit cu nori
Visibility: 6 miles , 10 km
Cloud details: Acoperit cu nori 2134 m
2018/01/20 13:50 EGXV 201350Z AUTO 28005KT 9999 OVC070/// 04/02 Q0999
EGNJ - Humberside, United Kingdom
Distance from station: S 16mi, 26km
Ultima actualizare: Sat, 20-Jan-2018 2:20pm GMT
Parțial înorat
Parțial înorat
 Vânt dela SV
Vântul: SV 5 mph , 7 km/h
Temperatura: 3°C
Wind Chill: 1°C
Punct de rouă: 2°C
Umiditate: 93%
Barometru: 999 hPa
Clouds: Parțial înorat
Visibility: 4 miles , 6 km
Cloud details: Parțial înorat 762 m
2018/01/20 14:20 EGNJ 201420Z 22004KT 6000 SCT025 03/02 Q0999
EGXS - Donna Nook Raf, United Kingdom
Distance from station: SE 30mi, 49km
Ultima actualizare: Sat, 20-Jan-2018 1:50pm GMT
In mare parte înorat
In mare parte înorat
 Vânt dela V
Vântul: V 7 mph , 11 km/h
Temperatura: 3°C
Wind Chill: 0°C
Punct de rouă: 2°C
Umiditate: 93%
Barometru: 999 hPa
Clouds: In mare parte înorat
Visibility: 6 miles , 10 km
Cloud details: Few Clouds 640 m
In mare parte înorat 2438 m
2018/01/20 13:50 EGXS 201350Z AUTO 28006KT 9999 // FEW021/// BKN080/// 03/02 Q0999
 
EGCN - Doncaster Sheffi, United Kingdom
Distance from station: SV 35mi, 56km
Ultima actualizare: Sat, 20-Jan-2018 2:20pm GMT
In mare parte înorat
In mare parte înorat
 Vânt dela NNE
Vântul: NNE 5 mph , 7 km/h
Temperatura: 4°C
Wind Chill: 2°C
Punct de rouă: 3°C
Umiditate: 93%
Barometru: 1000 hPa
Clouds: In mare parte înorat
Visibility: 6 miles , 10 km
Cloud details: Few Clouds 183 m
Parțial înorat 305 m
In mare parte înorat 701 m
2018/01/20 14:20 EGCN 201420Z 02004KT 9999 FEW006 SCT010 BKN023 04/03 Q1000
EGXP - Scampton Raf, United Kingdom
Distance from station: SSV 36mi, 58km
Ultima actualizare: Sat, 20-Jan-2018 1:50pm GMT
In mare parte înorat
In mare parte înorat
 Vânt dela V
Vântul: V 6 mph , 9 km/h
Temperatura: 2°C
Wind Chill: -1°C
Punct de rouă: 2°C
Umiditate: 100%
Barometru: 999 hPa
Clouds: In mare parte înorat
Visibility: 5 miles , 8 km
Cloud details: Few Clouds 579 m
In mare parte înorat 1280 m
2018/01/20 13:50 EGXP 201350Z AUTO 28005KT 8000 // FEW019/// BKN042/// 02/02 Q0999
EGXU - Linton-On-Ouse R, United Kingdom
Distance from station: VNV 40mi, 65km
Ultima actualizare: Sat, 20-Jan-2018 1:50pm GMT
In mare parte înorat
In mare parte înorat
 Vânt dela NV
Vântul: NV 2 mph , 4 km/h
Temperatura: 5°C
Punct de rouă: 3°C
Umiditate: 87%
Barometru: 999 hPa
Clouds: In mare parte înorat
Visibility: 6 miles , 10 km
Cloud details: In mare parte înorat 2134 m
2018/01/20 13:50 EGXU 201350Z AUTO 32002KT 9999 // BKN070/// 05/03 Q0999
 
EGXW - Waddington Raf, United Kingdom
Distance from station: S 43mi, 70km
Ultima actualizare: Sat, 20-Jan-2018 1:50pm GMT
Ploaie ușoară, In mare parte înorat
Ploaie ușoară, In mare parte înorat
 Vânt dela VNV
Vântul: VNV 6 mph , 9 km/h
Temperatura: 3°C
Wind Chill: 0°C
Punct de rouă: 2°C
Umiditate: 93%
Barometru: 999 hPa
Sumar: Ploaie ușoară
Clouds: In mare parte înorat
Visibility: 6 miles , 10 km
Cloud details: Parțial înorat 244 m
In mare parte înorat 1219 m
2018/01/20 13:50 EGXW 201350Z AUTO 29005KT 9999 -RA SCT008/// BKN040/// 03/02 Q0999
EGXC - Coningsby Raf, United Kingdom
Distance from station: S 49mi, 79km
Ultima actualizare: Sat, 20-Jan-2018 1:50pm GMT
Ploaie ușoară, Acoperit cu nori
Ploaie ușoară, Acoperit cu nori
 Vânt dela VNV
Vântul: VNV 6 mph , 9 km/h
Temperatura: 3°C
Wind Chill: 0°C
Punct de rouă: 2°C
Umiditate: 93%
Barometru: 999 hPa
Sumar: Ploaie ușoară
Clouds: Acoperit cu nori
Visibility: 6 miles , 10 km
Cloud details: Few Clouds 305 m
Acoperit cu nori 1219 m
2018/01/20 13:50 EGXC 201350Z 29005KT 9999 -RA FEW010 OVC040 03/02 Q0999 BLU
EGXD - Dishforth Raf, United Kingdom
Distance from station: VNV 49mi, 79km
Ultima actualizare: Mon, 06-Jun-2016 10:50am BST
NOT Current
Senin
Senin
 Vânt dela SSE
Vântul: SSE 5 mph , 7 km/h
Temperatura: 18°C
Punct de rouă: 11°C
Umiditate: 64%
Barometru: 1023 hPa
Clouds: Senin
Visibility: 6 miles , 10 km
2016/06/06 09:50 EGXD 060950Z AUTO 16004KT 9999 // NCD 18/11 Q1023
 
EGXZ - Topcliffe Raf, United Kingdom
Distance from station: VNV 50mi, 81km
Ultima actualizare: Sat, 20-Jan-2018 1:50pm GMT
Acoperit cu nori
Acoperit cu nori
 Vânt dela ENE
Vântul: ENE 1 mph , 2 km/h
Temperatura: 3°C
Punct de rouă: 1°C
Umiditate: 87%
Barometru: 999 hPa
Clouds: Acoperit cu nori
Visibility: 6 miles , 10 km
Cloud details: Acoperit cu nori 2134 m
2018/01/20 13:50 EGXZ 201350Z AUTO 07001KT 9999 OVC070/// 03/01 Q0999